Dana, Iowa
Current Conditions -  °F | °C
As of 8:15 AM on Thursday 18 Dec 2014 (Local Time) from KPRO Reporting Station
Overcast Overcast  
Wind Chill: 16°   Ceiling: 6500
Heat Index: 23°   Visibility: 10mi
Dew Point: 20°   Wind: 6mph
Humidity: 89%   Direction: 110°ESE
Pressure: 30.28"   Gusts: NA
Location:  42.11°N, 94.24°W
Report Text: KPRO 181415Z AUTO 11005KT 10SM OVC065 M05/M07 A3028 RMK AO2 T10511066
Loading
Personal Weather Stations






























Interactive Weather Map New forecast layout! Learn more

10-Day Weather Forecast

Advertisements
Track Severe Weather on mobile